sensor_id;sensor_type;location;lat;lon;timestamp;pressure;altitude;pressure_sealevel;temperature;humidity
59951;BME280;45812;53.540;9.774;2023-05-08T00:00:15;102463.25;;;11.73;76.76
59951;BME280;45812;53.540;9.774;2023-05-08T00:02:40;102482.16;;;11.70;77.09
59951;BME280;45812;53.540;9.774;2023-05-08T00:05:06;102470.06;;;11.66;77.06
59951;BME280;45812;53.540;9.774;2023-05-08T00:07:31;102469.59;;;11.61;77.45
59951;BME280;45812;53.540;9.774;2023-05-08T00:09:57;102470.84;;;11.57;77.88
59951;BME280;45812;53.540;9.774;2023-05-08T00:12:22;102463.09;;;11.53;77.68
59951;BME280;45812;53.540;9.774;2023-05-08T00:14:47;102462.63;;;11.48;77.93
59951;BME280;45812;53.540;9.774;2023-05-08T00:17:12;102474.53;;;11.44;77.55
59951;BME280;45812;53.540;9.774;2023-05-08T00:19:38;102467.31;;;11.35;76.35
59951;BME280;45812;53.540;9.774;2023-05-08T00:22:03;102465.13;;;11.29;76.34
59951;BME280;45812;53.540;9.774;2023-05-08T00:24:28;102465.38;;;11.26;76.00
59951;BME280;45812;53.540;9.774;2023-05-08T00:26:54;102454.97;;;11.23;75.60
59951;BME280;45812;53.540;9.774;2023-05-08T00:29:19;102461.28;;;11.22;75.57
59951;BME280;45812;53.540;9.774;2023-05-08T00:31:44;102463.94;;;11.22;75.11
59951;BME280;45812;53.540;9.774;2023-05-08T00:34:09;102465.75;;;11.21;74.79
59951;BME280;45812;53.540;9.774;2023-05-08T00:36:35;102465.91;;;11.20;74.54
59951;BME280;45812;53.540;9.774;2023-05-08T00:39:00;102467.84;;;11.18;74.34
59951;BME280;45812;53.540;9.774;2023-05-08T00:41:25;102462.63;;;11.16;74.24
59951;BME280;45812;53.540;9.774;2023-05-08T00:43:50;102460.19;;;11.13;74.01
59951;BME280;45812;53.540;9.774;2023-05-08T00:46:16;102454.28;;;11.10;74.42
59951;BME280;45812;53.540;9.774;2023-05-08T00:48:42;102457.31;;;11.05;73.94
59951;BME280;45812;53.540;9.774;2023-05-08T00:51:08;102456.47;;;11.05;73.57
59951;BME280;45812;53.540;9.774;2023-05-08T00:53:37;102461.81;;;11.05;73.69
59951;BME280;45812;53.540;9.774;2023-05-08T00:56:04;102454.31;;;10.99;72.86
59951;BME280;45812;53.540;9.774;2023-05-08T00:58:31;102461.69;;;10.95;72.58
59951;BME280;45812;53.540;9.774;2023-05-08T01:00:56;102461.09;;;10.91;72.49
59951;BME280;45812;53.540;9.774;2023-05-08T01:03:24;102475.28;;;10.92;72.77
59951;BME280;45812;53.540;9.774;2023-05-08T01:05:49;102468.63;;;10.86;71.65
59951;BME280;45812;53.540;9.774;2023-05-08T01:08:14;102473.38;;;10.83;72.00
59951;BME280;45812;53.540;9.774;2023-05-08T01:10:46;102481.63;;;10.80;72.13
59951;BME280;45812;53.540;9.774;2023-05-08T01:13:49;102476.50;;;10.77;72.48
59951;BME280;45812;53.540;9.774;2023-05-08T01:16:19;102489.22;;;10.73;72.58
59951;BME280;45812;53.540;9.774;2023-05-08T01:19:06;102481.34;;;10.72;72.51
59951;BME280;45812;53.540;9.774;2023-05-08T01:21:42;102484.28;;;10.69;72.13
59951;BME280;45812;53.540;9.774;2023-05-08T01:24:31;102477.63;;;10.63;72.65
59951;BME280;45812;53.540;9.774;2023-05-08T01:32:45;102463.34;;;10.53;73.40
59951;BME280;45812;53.540;9.774;2023-05-08T01:35:26;102466.38;;;10.48;74.15
59951;BME280;45812;53.540;9.774;2023-05-08T01:38:06;102472.53;;;10.49;73.99
59951;BME280;45812;53.540;9.774;2023-05-08T01:40:52;102471.81;;;10.47;74.43
59951;BME280;45812;53.540;9.774;2023-05-08T01:43:40;102464.94;;;10.44;74.54
59951;BME280;45812;53.540;9.774;2023-05-08T01:46:13;102466.97;;;10.41;75.07
59951;BME280;45812;53.540;9.774;2023-05-08T01:48:46;102470.00;;;10.36;75.45
59951;BME280;45812;53.540;9.774;2023-05-08T01:51:17;102473.03;;;10.31;75.36
59951;BME280;45812;53.540;9.774;2023-05-08T01:53:47;102478.47;;;10.30;75.79
59951;BME280;45812;53.540;9.774;2023-05-08T01:56:16;102478.59;;;10.28;75.58
59951;BME280;45812;53.540;9.774;2023-05-08T01:58:43;102484.16;;;10.25;76.15
59951;BME280;45812;53.540;9.774;2023-05-08T02:01:11;102487.78;;;10.24;76.41
59951;BME280;45812;53.540;9.774;2023-05-08T02:03:38;102479.25;;;10.19;76.43
59951;BME280;45812;53.540;9.774;2023-05-08T02:06:06;102487.34;;;10.18;76.48
59951;BME280;45812;53.540;9.774;2023-05-08T02:08:33;102475.16;;;10.15;76.61
59951;BME280;45812;53.540;9.774;2023-05-08T02:10:59;102484.22;;;10.13;76.78
59951;BME280;45812;53.540;9.774;2023-05-08T02:13:26;102472.13;;;10.09;77.13
59951;BME280;45812;53.540;9.774;2023-05-08T02:15:54;102477.56;;;10.07;77.15
59951;BME280;45812;53.540;9.774;2023-05-08T02:18:20;102476.00;;;10.05;77.30
59951;BME280;45812;53.540;9.774;2023-05-08T02:20:51;102473.53;;;10.01;77.50
59951;BME280;45812;53.540;9.774;2023-05-08T02:23:18;102481.75;;;9.98;77.66
59951;BME280;45812;53.540;9.774;2023-05-08T02:25:46;102482.00;;;9.95;77.45
59951;BME280;45812;53.540;9.774;2023-05-08T02:28:12;102475.09;;;9.93;77.71
59951;BME280;45812;53.540;9.774;2023-05-08T02:30:39;102472.81;;;9.88;77.78
59951;BME280;45812;53.540;9.774;2023-05-08T02:33:07;102477.50;;;9.85;77.67
59951;BME280;45812;53.540;9.774;2023-05-08T02:35:36;102481.47;;;9.79;78.30
59951;BME280;45812;53.540;9.774;2023-05-08T02:38:03;102477.25;;;9.77;77.81
59951;BME280;45812;53.540;9.774;2023-05-08T02:40:35;102473.84;;;9.75;77.59
59951;BME280;45812;53.540;9.774;2023-05-08T02:43:01;102472.16;;;9.74;77.97
59951;BME280;45812;53.540;9.774;2023-05-08T02:45:36;102475.78;;;9.73;77.82
59951;BME280;45812;53.540;9.774;2023-05-08T02:48:06;102475.06;;;9.70;77.31
59951;BME280;45812;53.540;9.774;2023-05-08T02:51:20;102471.78;;;9.67;77.21
59951;BME280;45812;53.540;9.774;2023-05-08T02:53:52;102471.78;;;9.67;77.12
59951;BME280;45812;53.540;9.774;2023-05-08T02:56:59;102470.06;;;9.66;77.35
59951;BME280;45812;53.540;9.774;2023-05-08T02:59:48;102464.97;;;9.63;77.06
59951;BME280;45812;53.540;9.774;2023-05-08T03:02:34;102468.00;;;9.58;77.36
59951;BME280;45812;53.540;9.774;2023-05-08T03:05:05;102464.00;;;9.53;77.40
59951;BME280;45812;53.540;9.774;2023-05-08T03:07:37;102473.78;;;9.52;77.37
59951;BME280;45812;53.540;9.774;2023-05-08T03:10:10;102468.47;;;9.52;78.08
59951;BME280;45812;53.540;9.774;2023-05-08T03:12:39;102454.75;;;9.46;78.08
59951;BME280;45812;53.540;9.774;2023-05-08T03:17:34;102467.22;;;9.45;77.55
59951;BME280;45812;53.540;9.774;2023-05-08T03:20:04;102465.75;;;9.41;77.47
59951;BME280;45812;53.540;9.774;2023-05-08T03:22:33;102461.63;;;9.37;77.53
59951;BME280;45812;53.540;9.774;2023-05-08T03:25:02;102460.78;;;9.36;77.88
59951;BME280;45812;53.540;9.774;2023-05-08T03:27:29;102468.88;;;9.35;77.90
59951;BME280;45812;53.540;9.774;2023-05-08T03:29:56;102465.38;;;9.34;77.83
59951;BME280;45812;53.540;9.774;2023-05-08T03:32:24;102465.47;;;9.33;77.42
59951;BME280;45812;53.540;9.774;2023-05-08T03:34:50;102458.34;;;9.33;78.07
59951;BME280;45812;53.540;9.774;2023-05-08T03:37:17;102461.88;;;9.34;78.01
59951;BME280;45812;53.540;9.774;2023-05-08T03:39:42;102460.28;;;9.31;77.88
59951;BME280;45812;53.540;9.774;2023-05-08T03:42:08;102461.88;;;9.34;77.78
59951;BME280;45812;53.540;9.774;2023-05-08T03:44:34;102467.06;;;9.35;78.30
59951;BME280;45812;53.540;9.774;2023-05-08T03:47:01;102470.56;;;9.36;78.97
59951;BME280;45812;53.540;9.774;2023-05-08T03:49:28;102470.44;;;9.37;79.16
59951;BME280;45812;53.540;9.774;2023-05-08T03:51:55;102470.56;;;9.36;79.04
59951;BME280;45812;53.540;9.774;2023-05-08T03:54:20;102465.97;;;9.38;79.36
59951;BME280;45812;53.540;9.774;2023-05-08T04:11:37;102462.56;;;8.88;83.10
59951;BME280;45812;53.540;9.774;2023-05-08T04:14:07;102457.59;;;9.07;81.58
59951;BME280;45812;53.540;9.774;2023-05-08T04:16:41;102458.63;;;9.18;80.94
59951;BME280;45812;53.540;9.774;2023-05-08T04:19:22;102460.84;;;9.24;80.54
59951;BME280;45812;53.540;9.774;2023-05-08T04:21:53;102463.06;;;9.30;79.47
59951;BME280;45812;53.540;9.774;2023-05-08T04:24:22;102456.66;;;9.32;79.36
59951;BME280;45812;53.540;9.774;2023-05-08T04:26:49;102454.63;;;9.36;79.23
59951;BME280;45812;53.540;9.774;2023-05-08T04:29:15;102444.97;;;9.35;78.93
59951;BME280;45812;53.540;9.774;2023-05-08T04:31:41;102452.81;;;9.36;78.87
59951;BME280;45812;53.540;9.774;2023-05-08T04:34:07;102450.16;;;9.36;78.99
59951;BME280;45812;53.540;9.774;2023-05-08T04:36:33;102445.34;;;9.41;79.09
59951;BME280;45812;53.540;9.774;2023-05-08T04:38:58;102449.81;;;9.41;78.68
59951;BME280;45812;53.540;9.774;2023-05-08T04:41:23;102452.22;;;9.44;78.66
59951;BME280;45812;53.540;9.774;2023-05-08T04:43:50;102440.63;;;9.45;78.94
59951;BME280;45812;53.540;9.774;2023-05-08T04:46:15;102438.69;;;9.47;79.09
59951;BME280;45812;53.540;9.774;2023-05-08T04:48:40;102440.38;;;9.48;78.29
59951;BME280;45812;53.540;9.774;2023-05-08T04:51:05;102457.41;;;9.46;78.17
59951;BME280;45812;53.540;9.774;2023-05-08T04:53:31;102453.81;;;9.47;78.89
59951;BME280;45812;53.540;9.774;2023-05-08T04:55:56;102452.84;;;9.48;78.63
59951;BME280;45812;53.540;9.774;2023-05-08T04:58:22;102457.09;;;9.50;78.54
59951;BME280;45812;53.540;9.774;2023-05-08T05:00:47;102457.84;;;9.52;78.01
59951;BME280;45812;53.540;9.774;2023-05-08T05:03:13;102460.38;;;9.54;78.34
59951;BME280;45812;53.540;9.774;2023-05-08T05:05:38;102449.50;;;9.57;78.48
59951;BME280;45812;53.540;9.774;2023-05-08T05:08:03;102453.97;;;9.56;78.01
59951;BME280;45812;53.540;9.774;2023-05-08T05:10:28;102461.94;;;9.56;77.99
59951;BME280;45812;53.540;9.774;2023-05-08T05:12:54;102466.06;;;9.60;77.96
59951;BME280;45812;53.540;9.774;2023-05-08T05:15:19;102478.50;;;9.60;77.39
59951;BME280;45812;53.540;9.774;2023-05-08T05:17:44;102470.66;;;9.58;77.93
59951;BME280;45812;53.540;9.774;2023-05-08T05:20:10;102480.31;;;9.59;77.57
59951;BME280;45812;53.540;9.774;2023-05-08T05:22:36;102480.31;;;9.59;78.24
59951;BME280;45812;53.540;9.774;2023-05-08T05:25:01;102476.56;;;9.62;77.90
59951;BME280;45812;53.540;9.774;2023-05-08T05:27:26;102481.78;;;9.63;77.97
59951;BME280;45812;53.540;9.774;2023-05-08T05:29:51;102479.00;;;9.65;77.69
59951;BME280;45812;53.540;9.774;2023-05-08T05:32:17;102483.47;;;9.64;78.31
59951;BME280;45812;53.540;9.774;2023-05-08T05:34:42;102482.63;;;9.64;77.97
59951;BME280;45812;53.540;9.774;2023-05-08T05:37:08;102488.78;;;9.64;77.66
59951;BME280;45812;53.540;9.774;2023-05-08T05:39:33;102487.50;;;9.70;77.94
59951;BME280;45812;53.540;9.774;2023-05-08T05:41:59;102472.41;;;9.70;78.32
59951;BME280;45812;53.540;9.774;2023-05-08T05:44:25;102484.50;;;9.75;78.76
59951;BME280;45812;53.540;9.774;2023-05-08T05:46:50;102477.25;;;9.77;77.88
59951;BME280;45812;53.540;9.774;2023-05-08T05:49:15;102498.28;;;9.80;77.87
59951;BME280;45812;53.540;9.774;2023-05-08T05:51:40;102490.78;;;9.85;77.38
59951;BME280;45812;53.540;9.774;2023-05-08T05:54:06;102487.81;;;9.89;76.93
59951;BME280;45812;53.540;9.774;2023-05-08T05:56:31;102498.56;;;9.88;76.48
59951;BME280;45812;53.540;9.774;2023-05-08T05:58:56;102485.38;;;9.86;76.98
59951;BME280;45812;53.540;9.774;2023-05-08T06:01:22;102492.28;;;9.89;77.43
59951;BME280;45812;53.540;9.774;2023-05-08T06:03:49;102488.78;;;9.88;76.75
59951;BME280;45812;53.540;9.774;2023-05-08T06:06:14;102490.59;;;9.88;77.21
59951;BME280;45812;53.540;9.774;2023-05-08T06:08:39;102488.88;;;9.87;76.73
59951;BME280;45812;53.540;9.774;2023-05-08T06:11:05;102493.00;;;9.91;76.92
59951;BME280;45812;53.540;9.774;2023-05-08T06:13:30;102483.94;;;9.93;76.68
59951;BME280;45812;53.540;9.774;2023-05-08T06:15:55;102486.47;;;9.95;77.45
59951;BME280;45812;53.540;9.774;2023-05-08T06:18:21;102478.38;;;9.96;77.70
59951;BME280;45812;53.540;9.774;2023-05-08T06:20:47;102481.53;;;10.01;77.67
59951;BME280;45812;53.540;9.774;2023-05-08T06:23:13;102482.88;;;10.07;78.00
59951;BME280;45812;53.540;9.774;2023-05-08T06:25:38;102484.81;;;10.16;77.52
59951;BME280;45812;53.540;9.774;2023-05-08T06:28:04;102478.28;;;10.20;76.94
59951;BME280;45812;53.540;9.774;2023-05-08T06:30:32;102477.34;;;10.21;76.25
59951;BME280;45812;53.540;9.774;2023-05-08T06:32:57;102480.94;;;10.20;76.41
59951;BME280;45812;53.540;9.774;2023-05-08T06:35:22;102481.63;;;10.24;76.86
59951;BME280;45812;53.540;9.774;2023-05-08T06:37:48;102491.16;;;10.26;76.21
59951;BME280;45812;53.540;9.774;2023-05-08T06:40:13;102492.63;;;10.30;76.52
59951;BME280;45812;53.540;9.774;2023-05-08T06:42:39;102489.47;;;10.37;76.67
59951;BME280;45812;53.540;9.774;2023-05-08T06:45:04;102490.19;;;10.39;75.78
59951;BME280;45812;53.540;9.774;2023-05-08T06:47:30;102481.25;;;10.40;77.14
59951;BME280;45812;53.540;9.774;2023-05-08T06:49:55;102489.72;;;10.45;76.73
59951;BME280;45812;53.540;9.774;2023-05-08T06:52:21;102481.38;;;10.49;77.15
59951;BME280;45812;53.540;9.774;2023-05-08T06:54:46;102472.03;;;10.55;75.86
59951;BME280;45812;53.540;9.774;2023-05-08T06:57:11;102485.34;;;10.55;76.01
59951;BME280;45812;53.540;9.774;2023-05-08T06:59:38;102483.19;;;10.60;76.89
59951;BME280;45812;53.540;9.774;2023-05-08T07:02:04;102477.97;;;10.70;77.84
59951;BME280;45812;53.540;9.774;2023-05-08T07:04:29;102480.84;;;10.78;77.23
59951;BME280;45812;53.540;9.774;2023-05-08T07:06:55;102481.97;;;10.86;77.43
59951;BME280;45812;53.540;9.774;2023-05-08T07:09:20;102475.78;;;10.97;77.26
59951;BME280;45812;53.540;9.774;2023-05-08T07:11:45;102472.34;;;11.06;77.14
59951;BME280;45812;53.540;9.774;2023-05-08T07:14:12;102474.25;;;11.15;75.96
59951;BME280;45812;53.540;9.774;2023-05-08T07:16:37;102474.88;;;11.19;75.55
59951;BME280;45812;53.540;9.774;2023-05-08T07:19:02;102480.53;;;11.26;73.80
59951;BME280;45812;53.540;9.774;2023-05-08T07:21:27;102471.78;;;11.35;73.82
59951;BME280;45812;53.540;9.774;2023-05-08T07:23:53;102473.28;;;11.48;74.98
59951;BME280;45812;53.540;9.774;2023-05-08T07:26:19;102475.41;;;11.66;74.45
59951;BME280;45812;53.540;9.774;2023-05-08T07:28:45;102470.50;;;11.82;75.32
59951;BME280;45812;53.540;9.774;2023-05-08T07:31:11;102470.16;;;11.96;72.33
59951;BME280;45812;53.540;9.774;2023-05-08T07:33:36;102468.88;;;12.11;71.24
59951;BME280;45812;53.540;9.774;2023-05-08T07:36:01;102460.63;;;12.24;71.16
59951;BME280;45812;53.540;9.774;2023-05-08T07:38:27;102462.53;;;12.43;69.46
59951;BME280;45812;53.540;9.774;2023-05-08T07:40:52;102463.03;;;12.58;69.84
59951;BME280;45812;53.540;9.774;2023-05-08T07:43:21;102467.59;;;12.77;69.60
59951;BME280;45812;53.540;9.774;2023-05-08T07:45:46;102457.78;;;12.96;68.25
59951;BME280;45812;53.540;9.774;2023-05-08T07:48:11;102455.56;;;13.11;65.95
59951;BME280;45812;53.540;9.774;2023-05-08T07:50:37;102453.34;;;13.26;66.63
59951;BME280;45812;53.540;9.774;2023-05-08T07:53:02;102449.69;;;13.46;67.17
59951;BME280;45812;53.540;9.774;2023-05-08T07:55:27;102447.00;;;13.56;65.18
59951;BME280;45812;53.540;9.774;2023-05-08T07:57:53;102441.22;;;13.70;66.57
59951;BME280;45812;53.540;9.774;2023-05-08T08:00:18;102448.56;;;13.78;63.46
59951;BME280;45812;53.540;9.774;2023-05-08T08:02:43;102442.34;;;13.77;62.22
59951;BME280;45812;53.540;9.774;2023-05-08T08:05:09;102442.34;;;13.77;63.67
59951;BME280;45812;53.540;9.774;2023-05-08T08:07:35;102445.59;;;13.81;64.37
59951;BME280;45812;53.540;9.774;2023-05-08T08:10:01;102442.63;;;13.74;63.74
59951;BME280;45812;53.540;9.774;2023-05-08T08:12:28;102444.59;;;13.72;64.06
59951;BME280;45812;53.540;9.774;2023-05-08T08:14:53;102432.06;;;13.73;64.30
59951;BME280;45812;53.540;9.774;2023-05-08T08:17:19;102441.38;;;13.78;64.92
59951;BME280;45812;53.540;9.774;2023-05-08T08:19:44;102429.81;;;13.78;64.26
59951;BME280;45812;53.540;9.774;2023-05-08T08:22:10;102438.00;;;13.76;63.57
59951;BME280;45812;53.540;9.774;2023-05-08T08:24:35;102429.69;;;13.79;64.36
59951;BME280;45812;53.540;9.774;2023-05-08T08:27:00;102432.34;;;13.70;62.78
59951;BME280;45812;53.540;9.774;2023-05-08T08:29:25;102422.94;;;13.66;63.70
59951;BME280;45812;53.540;9.774;2023-05-08T08:31:51;102431.69;;;13.58;63.27
59951;BME280;45812;53.540;9.774;2023-05-08T08:34:16;102431.94;;;13.55;65.07
59951;BME280;45812;53.540;9.774;2023-05-08T08:36:42;102432.94;;;13.54;64.58
59951;BME280;45812;53.540;9.774;2023-05-08T08:39:07;102426.31;;;13.48;64.37
59951;BME280;45812;53.540;9.774;2023-05-08T08:41:32;102430.97;;;13.46;64.69
59951;BME280;45812;53.540;9.774;2023-05-08T08:43:58;102432.41;;;13.41;63.43
59951;BME280;45812;53.540;9.774;2023-05-08T08:46:24;102431.66;;;13.39;64.32
59951;BME280;45812;53.540;9.774;2023-05-08T08:48:52;102436.06;;;13.40;65.90
59951;BME280;45812;53.540;9.774;2023-05-08T08:51:30;102439.56;;;13.40;66.32
59951;BME280;45812;53.540;9.774;2023-05-08T08:54:07;102439.44;;;13.42;65.25
59951;BME280;45812;53.540;9.774;2023-05-08T08:56:35;102436.88;;;13.50;65.74
59951;BME280;45812;53.540;9.774;2023-05-08T08:59:03;102432.38;;;13.60;66.07
59951;BME280;45812;53.540;9.774;2023-05-08T09:01:29;102435.44;;;13.75;66.95
59951;BME280;45812;53.540;9.774;2023-05-08T09:03:57;102438.50;;;13.89;66.11
59951;BME280;45812;53.540;9.774;2023-05-08T09:06:23;102430.31;;;14.01;64.09
59951;BME280;45812;53.540;9.774;2023-05-08T09:08:49;102429.72;;;14.07;64.33
59951;BME280;45812;53.540;9.774;2023-05-08T09:11:15;102438.16;;;14.12;62.92
59951;BME280;45812;53.540;9.774;2023-05-08T09:13:40;102436.75;;;14.17;62.18
59951;BME280;45812;53.540;9.774;2023-05-08T09:16:06;102433.47;;;14.33;63.77
59951;BME280;45812;53.540;9.774;2023-05-08T09:18:31;102435.47;;;14.59;63.39
59951;BME280;45812;53.540;9.774;2023-05-08T09:20:56;102438.97;;;14.87;63.32
59951;BME280;45812;53.540;9.774;2023-05-08T09:23:22;102434.25;;;15.16;61.79
59951;BME280;45812;53.540;9.774;2023-05-08T09:25:48;102432.34;;;15.44;61.86
59951;BME280;45812;53.540;9.774;2023-05-08T09:28:19;102424.03;;;15.73;59.24
59951;BME280;45812;53.540;9.774;2023-05-08T09:30:56;102428.03;;;15.95;56.43
59951;BME280;45812;53.540;9.774;2023-05-08T09:33:26;102412.38;;;16.16;57.95
59951;BME280;45812;53.540;9.774;2023-05-08T09:35:52;102422.78;;;16.45;56.34
59951;BME280;45812;53.540;9.774;2023-05-08T09:38:36;102423.41;;;16.73;52.88
59951;BME280;45812;53.540;9.774;2023-05-08T09:41:09;102423.81;;;16.94;51.52
59951;BME280;45812;53.540;9.774;2023-05-08T09:43:35;102414.63;;;17.30;50.22
59951;BME280;45812;53.540;9.774;2023-05-08T09:46:23;102416.94;;;17.81;49.09
59951;BME280;45812;53.540;9.774;2023-05-08T09:48:50;102410.53;;;17.91;47.27
59951;BME280;45812;53.540;9.774;2023-05-08T09:51:16;102400.63;;;17.91;46.27
59951;BME280;45812;53.540;9.774;2023-05-08T09:53:41;102407.19;;;18.44;48.18
59951;BME280;45812;53.540;9.774;2023-05-08T09:56:06;102410.91;;;19.05;47.30
59951;BME280;45812;53.540;9.774;2023-05-08T09:58:39;102421.09;;;19.41;42.50
59951;BME280;45812;53.540;9.774;2023-05-08T10:03:49;102410.50;;;20.06;42.21
59951;BME280;45812;53.540;9.774;2023-05-08T10:06:15;102409.41;;;20.30;42.26
59951;BME280;45812;53.540;9.774;2023-05-08T10:08:40;102404.06;;;20.07;41.28
59951;BME280;45812;53.540;9.774;2023-05-08T10:11:15;102407.63;;;19.93;40.66
59951;BME280;45812;53.540;9.774;2023-05-08T10:13:42;102400.13;;;19.65;41.46
59951;BME280;45812;53.540;9.774;2023-05-08T10:16:14;102402.28;;;19.47;40.79
59951;BME280;45812;53.540;9.774;2023-05-08T10:18:46;102407.13;;;19.37;42.47
59951;BME280;45812;53.540;9.774;2023-05-08T10:21:16;102404.44;;;19.89;42.36
59951;BME280;45812;53.540;9.774;2023-05-08T10:23:43;102399.91;;;20.85;40.04
59951;BME280;45812;53.540;9.774;2023-05-08T10:26:24;102401.94;;;21.68;38.77
59951;BME280;45812;53.540;9.774;2023-05-08T10:28:56;102394.25;;;22.95;37.62
59951;BME280;45812;53.540;9.774;2023-05-08T10:31:24;102380.91;;;23.86;35.07
59951;BME280;45812;53.540;9.774;2023-05-08T10:33:54;102386.94;;;24.60;33.62
59951;BME280;45812;53.540;9.774;2023-05-08T10:36:20;102395.91;;;25.05;31.82
59951;BME280;45812;53.540;9.774;2023-05-08T10:38:48;102389.81;;;25.59;30.38
59951;BME280;45812;53.540;9.774;2023-05-08T10:41:14;102383.44;;;26.27;29.48
59951;BME280;45812;53.540;9.774;2023-05-08T10:43:42;102365.53;;;26.49;29.11
59951;BME280;45812;53.540;9.774;2023-05-08T10:46:20;102374.50;;;26.98;29.12
59951;BME280;45812;53.540;9.774;2023-05-08T10:48:52;102374.22;;;28.00;26.92
59951;BME280;45812;53.540;9.774;2023-05-08T10:51:36;102366.94;;;29.36;25.54
59951;BME280;45812;53.540;9.774;2023-05-08T10:54:08;102361.84;;;30.66;24.64
59951;BME280;45812;53.540;9.774;2023-05-08T10:56:37;102358.31;;;31.72;22.61
59951;BME280;45812;53.540;9.774;2023-05-08T10:59:02;102365.00;;;32.38;22.00
59951;BME280;45812;53.540;9.774;2023-05-08T11:01:28;102354.06;;;32.94;20.57
59951;BME280;45812;53.540;9.774;2023-05-08T11:03:53;102354.03;;;33.55;20.40
59951;BME280;45812;53.540;9.774;2023-05-08T11:09:13;102344.03;;;34.44;19.05
59951;BME280;45812;53.540;9.774;2023-05-08T11:11:39;102358.69;;;34.84;19.12
59951;BME280;45812;53.540;9.774;2023-05-08T11:14:12;102348.63;;;35.56;19.03
59951;BME280;45812;53.540;9.774;2023-05-08T11:19:19;102342.88;;;37.41;17.28
59951;BME280;45812;53.540;9.774;2023-05-08T11:22:20;102335.66;;;38.22;16.79
59951;BME280;45812;53.540;9.774;2023-05-08T11:24:58;102333.56;;;38.86;15.19
59951;BME280;45812;53.540;9.774;2023-05-08T11:27:40;102329.38;;;38.53;15.24
59951;BME280;45812;53.540;9.774;2023-05-08T11:40:55;102313.66;;;41.57;13.20
59951;BME280;45812;53.540;9.774;2023-05-08T11:46:13;102322.63;;;41.42;12.59
59951;BME280;45812;53.540;9.774;2023-05-08T11:48:39;102327.38;;;42.09;11.56
59951;BME280;45812;53.540;9.774;2023-05-08T11:51:05;102318.81;;;42.06;12.03
59951;BME280;45812;53.540;9.774;2023-05-08T11:53:30;102318.19;;;42.21;12.25
59951;BME280;45812;53.540;9.774;2023-05-08T11:55:57;102318.03;;;41.37;11.68
59951;BME280;45812;53.540;9.774;2023-05-08T11:58:22;102308.38;;;40.28;14.13
59951;BME280;45812;53.540;9.774;2023-05-08T12:00:48;102304.97;;;38.94;13.94
59951;BME280;45812;53.540;9.774;2023-05-08T12:03:18;102305.13;;;37.40;14.69
59951;BME280;45812;53.540;9.774;2023-05-08T12:05:44;102313.78;;;35.98;15.90
59951;BME280;45812;53.540;9.774;2023-05-08T12:08:11;102307.56;;;35.39;16.32
59951;BME280;45812;53.540;9.774;2023-05-08T12:10:48;102323.13;;;34.23;16.13
59951;BME280;45812;53.540;9.774;2023-05-08T12:13:23;102319.25;;;33.44;17.05
59951;BME280;45812;53.540;9.774;2023-05-08T12:15:51;102323.41;;;33.31;17.75
59951;BME280;45812;53.540;9.774;2023-05-08T12:18:18;102322.19;;;33.88;17.81
59951;BME280;45812;53.540;9.774;2023-05-08T12:20:43;102318.94;;;33.61;16.96
59951;BME280;45812;53.540;9.774;2023-05-08T12:23:09;102309.91;;;35.51;16.54
59951;BME280;45812;53.540;9.774;2023-05-08T12:25:38;102312.88;;;36.02;16.06
59951;BME280;45812;53.540;9.774;2023-05-08T12:28:08;102301.19;;;36.81;15.33
59951;BME280;45812;53.540;9.774;2023-05-08T12:30:34;102304.28;;;37.67;15.19
59951;BME280;45812;53.540;9.774;2023-05-08T12:33:00;102304.25;;;38.44;13.69
59951;BME280;45812;53.540;9.774;2023-05-08T12:35:26;102314.97;;;38.51;14.39
59951;BME280;45812;53.540;9.774;2023-05-08T12:37:51;102303.53;;;38.74;13.49
59951;BME280;45812;53.540;9.774;2023-05-08T12:40:28;102299.56;;;37.95;13.86
59951;BME280;45812;53.540;9.774;2023-05-08T12:42:53;102304.78;;;37.55;14.21
59951;BME280;45812;53.540;9.774;2023-05-08T12:45:22;102298.13;;;36.96;14.40
59951;BME280;45812;53.540;9.774;2023-05-08T12:47:48;102300.50;;;37.76;14.15
59951;BME280;45812;53.540;9.774;2023-05-08T12:50:15;102299.50;;;38.08;13.53
59951;BME280;45812;53.540;9.774;2023-05-08T12:52:40;102300.44;;;39.38;12.92
59951;BME280;45812;53.540;9.774;2023-05-08T12:55:22;102299.28;;;41.38;11.74
59951;BME280;45812;53.540;9.774;2023-05-08T12:57:49;102288.91;;;43.66;10.40
59951;BME280;45812;53.540;9.774;2023-05-08T13:00:16;102292.53;;;44.75;8.67
59951;BME280;45812;53.540;9.774;2023-05-08T13:02:53;102284.38;;;44.70;8.60
59951;BME280;45812;53.540;9.774;2023-05-08T13:05:22;102291.94;;;44.97;8.69
59951;BME280;45812;53.540;9.774;2023-05-08T13:07:48;102286.72;;;43.72;8.79
59951;BME280;45812;53.540;9.774;2023-05-08T13:10:14;102291.56;;;42.36;9.87
59951;BME280;45812;53.540;9.774;2023-05-08T13:12:39;102273.88;;;42.02;10.21
59951;BME280;45812;53.540;9.774;2023-05-08T13:15:05;102277.03;;;42.00;9.87
59951;BME280;45812;53.540;9.774;2023-05-08T13:17:30;102289.81;;;42.31;10.04
59951;BME280;45812;53.540;9.774;2023-05-08T13:19:56;102275.31;;;41.37;10.12
59951;BME280;45812;53.540;9.774;2023-05-08T13:22:21;102274.38;;;40.60;10.95
59951;BME280;45812;53.540;9.774;2023-05-08T13:24:50;102279.16;;;40.25;10.99
59951;BME280;45812;53.540;9.774;2023-05-08T13:27:15;102275.72;;;40.19;10.98
59951;BME280;45812;53.540;9.774;2023-05-08T13:29:40;102275.63;;;40.89;10.79
59951;BME280;45812;53.540;9.774;2023-05-08T13:32:06;102264.81;;;41.25;10.37
59951;BME280;45812;53.540;9.774;2023-05-08T13:34:31;102255.06;;;41.40;10.04
59951;BME280;45812;53.540;9.774;2023-05-08T13:36:56;102257.47;;;41.50;10.18
59951;BME280;45812;53.540;9.774;2023-05-08T13:39:21;102256.38;;;41.72;9.87
59951;BME280;45812;53.540;9.774;2023-05-08T13:41:47;102248.41;;;42.03;10.12